Anderson, South Dakota
Current Conditions -  °F | °C
As of 12:53 AM on Tuesday 27 Jan 2015 (Local Time) from KHEI Reporting Station
Clear Clear  
Wind Chill: -3°   Ceiling: Unl
Heat Index: -3°   Visibility: 10mi
Dew Point: -4°   Wind: 0mph
Humidity: 92%   Direction: NA
Pressure: 29.91"   Gusts: NA
Location:  45.2919°N, 102.298°W
Report Text: KHEI 270753Z AUTO 00000KT 10SM CLR M03/M04 A2991 RMK AO2 SLP146 T10331044
Loading
Personal Weather Stations






























Interactive Weather Map New forecast layout! Learn more

10-Day Weather Forecast

Advertisements
Track Severe Weather on mobile